Tiempo atmosférico en la estación meteorológica de A Lama, Pontevedra (395 m.)



Fecha
DESCASC
Temp. máxima en grados centígrados (hora)
DESCASC
Temp. mínima en grados centígrados (hora)
DESCASC
Temp. media en grados centígrados
DESCASC
Racha de viento máxima en m/sg (hora)
DESCASC
Velocidad máxima media en intervalos de 10 minutos(hora)
DESCASC
Precipitaciones diarias en mm
DESCASC
Precipitaciones de 00:00 a 06:00 en mm
DESCASC
Precipitaciones de 06:00 a 12:00 en mm
DESCASC
Precipitaciones de 12:00 a 18:00 en mm
DESCASC
Precipitaciones de 18:00 a 24:00 en mm
DESCASC
18-02-2018 15.1 (14:40) 2.3 (02:20) 8.7 8.61 (21:30) 4.72 (22:30) -- -- -- -- --
17-02-2018 12.1 (14:30) 4.3 (23:20) 8.2 11.11 (13:30) 5 (12:40) -- -- -- -- --
16-02-2018 11.3 (00:00) 8.7 (22:40) 10 8.33 (12:00) 3.33 (12:50) -- -- -- -- --
15-02-2018 12.4 (15:20) 11.3 (00:00) 11.8 9.44 (17:10) 4.44 (00:10) -- -- -- -- --
14-02-2018 12 (15:00) 9 (00:00) 10.5 11.94 (12:00) 5 (22:00) -- -- -- -- --
13-02-2018 9.3 (13:50) -1 (-00:0) 4.2 12.5 (10:00) 5.56 (14:10) -- -- -- -- --
12-02-2018 6.9 (14:40) -1.4 (-00:0) 2.8 6.94 (15:40) 2.78 (01:30) -- -- -- -- --
11-02-2018 10.5 (14:50) 3.9 (00:00) 7.2 8.89 (15:00) 3.89 (14:50) -- -- -- -- --
10-02-2018 8.6 (14:00) -0.6 (-00:0) 4 5.28 (13:10) 3.06 (13:20) -- -- -- -- --
09-02-2018 9.3 (12:50) 0.5 (00:00) 4.9 8.89 (15:00) 3.61 (14:50) -- -- -- -- --
08-02-2018 9.4 (16:00) -2.1 (-00:0) 3.6 7.22 (14:10) 2.5 (14:20) -- -- -- -- --
07-02-2018 6.5 (13:20) 0.1 (00:00) 3.3 11.94 (16:10) 5.28 (11:50) -- -- -- -- --
06-02-2018 6.8 (13:10) -1 (-00:0) 2.9 8.89 (12:40) 3.89 (15:30) -- -- -- -- --
05-02-2018 6.9 (13:40) 1.3 (00:00) 4.1 17.22 (11:00) 7.5 (10:00) -- -- -- -- --
04-02-2018 7 (15:30) -0.1 (00:00) 3.4 11.94 (23:20) 5.83 (23:00) -- -- -- -- --
03-02-2018 7.6 (17:00) -1 (-00:0) 3.3 9.17 (23:40) 3.61 (15:30) -- -- -- -- --
02-02-2018 8 (15:00) -0.7 (-00:0) 3.7 8.06 (14:40) 4.44 (18:00) -- -- -- -- --
01-02-2018 8.4 (00:20) 2.7 (00:00) 5.5 10 (15:20) 4.72 (12:30) -- -- -- -- --
31-01-2018 14.6 (14:20) -0.3 (00:00) 7.2 5.28 (18:20) 3.61 (16:20) -- -- -- -- --
30-01-2018 17.6 (15:00) 2.8 (00:00) 10.2 9.17 (07:00) 5.83 (06:10) -- -- -- -- --
29-01-2018 18.4 (15:50) 5.1 (00:00) 11.7 10.83 (01:30) 6.11 (01:30) -- -- -- -- --
28-01-2018 14.4 (16:20) 7.1 (00:00) 10.7 13.33 (23:10) 7.78 (23:10) -- -- -- -- --
27-01-2018 9.6 (14:40) 2 (00:00) 5.8 6.94 (11:40) 2.5 (11:40) -- -- -- -- --
26-01-2018 8.1 (14:50) 1.7 (00:00) 4.9 9.72 (13:40) 4.72 (13:40) -- -- -- -- --
25-01-2018 9.7 (00:10) 2.5 (00:00) 6.1 9.17 (16:30) 4.44 (16:50) -- -- -- -- --
24-01-2018 9.8 (15:00) 5.5 (00:00) 7.7 9.17 (17:30) 3.89 (15:20) -- -- -- -- --
23-01-2018 12.4 (15:40) 7.2 (00:00) 9.8 2.5 (14:20) 1.11 (13:00) -- -- -- -- --
22-01-2018 12.1 (14:50) 9.6 (00:00) 10.9 4.72 (01:40) 1.67 (02:10) -- -- -- -- --

Gráficas

Temp. máximas Temp. mínimas Temp. medias Precipitaciones Rachas de viento máximas Velocidades máximas media en intervalos de 10 minutos

Datos horarios

Fecha y hora oficial Temperatura (ºC) Velocidad del viento (km/h) Dirección del viento Racha (km/h) Dirección de racha Precipitación (mm) Presión (hPa) Tendencia (hPa) Humedad (%)
2018-02-20 23:00:00 9.4 6 Sudoeste 29 Oeste 0 -- -- 68
2018-02-20 22:00:00 9.1 13 Noroeste 36 Este 0 -- -- 72
2018-02-20 21:00:00 8.9 5 Nordeste 34 Nordeste 0 -- -- 75
2018-02-20 20:00:00 9.8 9 Este 33 Este 0 -- -- 72
2018-02-20 19:00:00 11.4 17 Este 32 Nordeste 0 -- -- 64
2018-02-20 18:00:00 12.7 16 Este 39 Este 0 -- -- 60
2018-02-20 17:00:00 14.5 10 Este 33 Este 0 -- -- 54
2018-02-20 16:00:00 14.6 15 Este 34 Este 0 -- -- 54
2018-02-20 15:00:00 14.2 18 Nordeste 39 Nordeste 0 -- -- 54
2018-02-20 14:00:00 13.8 13 Este 35 Este 0 -- -- 56
2018-02-20 13:00:00 12.1 19 Este 37 Sudeste 0 -- -- 62
2018-02-20 12:00:00 11.3 24 Este 45 Este 0 -- -- 63
2018-02-20 11:00:00 10.8 8 Nordeste 22 Nordeste 0 -- -- 67
2018-02-20 10:00:00 9.1 7 Norte 22 Norte 0 -- -- 71
2018-02-20 09:00:00 7.4 11 Norte 27 Nordeste 0 -- -- 75
2018-02-20 08:00:00 7.2 10 Norte 27 Este 0 -- -- 76
2018-02-20 07:00:00 7.7 9 Norte 25 Este 0 -- -- 73
2018-02-20 06:00:00 7.5 8 Nordeste 23 Este 0 -- -- 77
2018-02-20 05:00:00 7.6 15 Este 28 Sudeste 0 -- -- 79
2018-02-20 04:00:00 8.2 8 Nordeste 32 Este 0 -- -- 76
2018-02-20 03:00:00 8.2 11 Nordeste 26 Noroeste -- -- -- 80
2018-02-20 02:00:00 8.5 8 Nordeste 24 Nordeste 0 -- -- 80
2018-02-20 01:00:00 8.4 5 Nordeste 15 Nordeste 0 -- -- 78
2018-02-20 00:00:00 8.7 3 Sudeste 24 Este 0 -- -- 80
2018-02-19 23:00:00 8.9 6 Nordeste 20 Nordeste 0 -- -- 84
2018-02-19 22:00:00 9.3 4 Nordeste 18 Nordeste 0 -- -- 86
2018-02-19 21:00:00 9.5 5 Nordeste 13 Norte 0 -- -- 85
2018-02-19 20:00:00 9.9 4 Nordeste 9 Nordeste 0 -- -- 82
2018-02-19 19:00:00 10.6 3 Nordeste 17 Nordeste 0 -- -- 79
2018-02-19 18:00:00 11.7 7 Nordeste 20 Este 0 -- -- 73
2018-02-19 17:00:00 12.6 8 Norte 25 Norte 0 -- -- 69
2018-02-19 16:00:00 12.5 9 Nordeste 24 Norte 0 -- -- 68
2018-02-19 15:00:00 12.5 10 Norte 29 Norte 0 -- -- 67
2018-02-19 14:00:00 12.5 5 Norte 29 Este 0 -- -- 66
2018-02-19 13:00:00 11.7 13 Este 24 Este 0 -- -- 63
2018-02-19 12:00:00 10.8 10 Este 26 Este 0 -- -- 70
2018-02-19 11:00:00 9.8 12 Este 19 Este 0 -- -- 75
2018-02-19 10:00:00 8.6 6 Nordeste 17 Nordeste 0 -- -- 79
2018-02-19 09:00:00 7.8 7 Este 20 Nordeste 0 -- -- 84
2018-02-19 08:00:00 8 12 Este 20 Este 0 -- -- 84
2018-02-19 07:00:00 7.9 6 Este 11 Este 0 -- -- 81
2018-02-19 06:00:00 8.5 4 Este 14 Este 0 -- -- 76
2018-02-19 05:00:00 8.2 3 Sudeste 7 Este 0 -- -- 77
2018-02-19 04:00:00 9 2 Este 10 Este 0 -- -- 77
2018-02-19 03:00:00 9.7 4 Este 13 Nordeste 0 -- -- 73
2018-02-19 02:00:00 9.8 3 Nordeste 18 Nordeste 0 -- -- 76
2018-02-19 01:00:00 10 3 Norte 17 Nordeste 0 -- -- 77
2018-02-19 00:00:00 10.1 8 Nordeste 21 Norte 0 -- -- 78
2018-02-18 23:00:00 10.2 5 Este 30 Este 0 -- -- 80
2018-02-18 22:00:00 10.3 15 Este 31 Nordeste 0 -- -- 82
2018-02-18 21:00:00 10.6 6 Norte 24 Este 0 -- -- 79
2018-02-18 20:00:00 11.1 9 Nordeste 21 Este 0 -- -- 77
2018-02-18 19:00:00 11.7 5 Nordeste 21 Norte 0 -- -- 77
2018-02-18 18:00:00 13.3 6 Nordeste 28 Este 0 -- -- 69
2018-02-18 17:00:00 14.5 10 Nordeste 31 Nordeste 0 -- -- 54
2018-02-18 16:00:00 14.9 9 Este 27 Este 0 -- -- 55
2018-02-18 15:00:00 15 13 Este 28 Este 0 -- -- 49
2018-02-18 14:00:00 14.4 9 Este 22 Este 0 -- -- 54
2018-02-18 13:00:00 13.3 9 Este 26 Este 0 -- -- 55
2018-02-18 12:00:00 12.6 6 Este 21 Sudeste 0 -- -- 55
2018-02-18 11:00:00 10.7 12 Este 19 Este 0 -- -- 54
2018-02-18 10:00:00 9 9 Este 25 Este 0 -- -- 54
2018-02-18 09:00:00 7.2 10 Este 22 Este 0 -- -- 56
2018-02-18 08:00:00 6.5 12 Este 25 Nordeste 0 -- -- 60
2018-02-18 07:00:00 6.5 6 Nordeste 21 Noroeste 0 -- -- 58
2018-02-18 06:00:00 6.7 8 Norte 18 Noroeste 0 -- -- 56
2018-02-18 05:00:00 4.6 3 Este 10 Norte 0 -- -- 69
2018-02-18 04:00:00 2.6 2 Norte 8 Norte 0 -- -- 86
2018-02-18 03:00:00 3.3 5 Norte 18 Nordeste 0 -- -- 81
2018-02-18 02:00:00 3.5 3 Norte 12 Norte 0 -- -- 81
2018-02-18 01:00:00 5.7 8 Nordeste 18 Este 0 -- -- 74
2018-02-18 00:00:00 5.4 10 Este 16 Este 0 -- -- 78
2018-02-17 23:00:00 4.8 3 Sudeste 13 Nordeste 0 -- -- 80
2018-02-17 22:00:00 5.4 2 Sur 11 Noroeste 0 -- -- 80
2018-02-17 21:00:00 6.6 4 Norte 10 Noroeste 0 -- -- 80
2018-02-17 20:00:00 8.4 5 Nordeste 15 Norte 0 -- -- 68
2018-02-17 19:00:00 9.8 5 Nordeste 18 Norte 0 -- -- 63
2018-02-17 18:00:00 11 10 Nordeste 27 Este 0 -- -- 58
2018-02-17 17:00:00 12.1 9 Nordeste 30 Este 0 -- -- 57
2018-02-17 16:00:00 12.1 10 Nordeste 31 Este 0 -- -- 57
2018-02-17 15:00:00 12.1 8 Nordeste 30 Este 0 -- -- 58
2018-02-17 14:00:00 11.7 8 Nordeste 40 Este 0 -- -- 62
2018-02-17 13:00:00 10.9 10 Este 35 Nordeste 0 -- -- 66
2018-02-17 12:00:00 9 15 Este 33 Este 0 -- -- 72
2018-02-17 11:00:00 8.7 14 Este 32 Este 0 -- -- 77
2018-02-17 10:00:00 7.5 10 Este 24 Este 0 -- -- 83
2018-02-17 09:00:00 5.6 8 Este 22 Este 0 -- -- 87
2018-02-17 08:00:00 5.1 6 Nordeste 21 Nordeste 0 -- -- 90
2018-02-17 07:00:00 5.4 9 Este 19 Este 0 -- -- 90
2018-02-17 06:00:00 6.1 13 Este 24 Este 0 -- -- 89
2018-02-17 05:00:00 6.6 6 Este 23 Este 0 -- -- 92
2018-02-17 04:00:00 7.2 0 Calma 9 Nordeste 0 -- -- 95
2018-02-17 03:00:00 7.9 3 Nordeste 12 Este 0 -- -- 98
2018-02-17 02:00:00 7.8 3 Nordeste 14 Nordeste 0.4 -- -- 100
2018-02-17 01:00:00 8.6 3 Nordeste 6 Este 0.4 -- -- 100
2018-02-17 00:00:00 8.7 0 Calma 4 Este 0.4 -- -- 100
2018-02-16 23:00:00 8.7 0 Calma 2 Este 0.6 -- -- 100
2018-02-16 22:00:00 8.8 0 Calma 4 Nordeste 0.2 -- -- 100
2018-02-16 21:00:00 9 0 Calma 6 Sudoeste 0.8 -- -- 100
2018-02-16 20:00:00 9.3 0 Calma 22 Sudoeste 0.4 -- -- 100
2018-02-16 19:00:00 9.4 4 Oeste 23 Oeste 1 -- -- 100
2018-02-16 18:00:00 10 10 Sudoeste 23 Sudoeste 3.2 -- -- 100
2018-02-16 17:00:00 10.3 5 Sudoeste 17 Sudoeste 0.8 -- -- 100
2018-02-16 16:00:00 10.3 4 Sudoeste 22 Oeste 1.2 -- -- 100
2018-02-16 15:00:00 10.6 8 Sudoeste 27 Sudoeste 4 -- -- 100
2018-02-16 14:00:00 10.7 10 Sudoeste 27 Sur 1.6 -- -- 100
2018-02-16 13:00:00 10.7 10 Sur 27 Sur 1.6 -- -- 100
2018-02-16 12:00:00 10.4 11 Sur 30 Sur 3.2 -- -- 100
2018-02-16 11:00:00 10.5 11 Sur 25 Sudoeste 2 -- -- 100
2018-02-16 10:00:00 10.4 7 Sur 20 Sudoeste 0.8 -- -- 100
2018-02-16 09:00:00 10.3 6 Sur 21 Sur 0.8 -- -- 100
2018-02-16 08:00:00 10.4 7 Sur 22 Sudoeste 1 -- -- 100
2018-02-16 07:00:00 10.4 6 Sur 15 Sur 0.6 -- -- 100
2018-02-16 06:00:00 10.5 6 Sur 14 Sudoeste 1.2 -- -- 100
2018-02-16 05:00:00 10.7 3 Sur 17 Sudoeste 0.8 -- -- 100
2018-02-16 04:00:00 10.8 5 Sur 17 Sur 1.2 -- -- 100
2018-02-16 03:00:00 10.9 8 Sur 27 Sur 0.6 -- -- 100
2018-02-16 02:00:00 11.1 6 Sur 22 Sudoeste 0.8 -- -- 100
2018-02-16 01:00:00 11.2 7 Sudoeste 20 Sur 1 -- -- 100
2018-02-16 00:00:00 11.3 7 Sur 19 Sur 2.4 -- -- 100
2018-02-15 23:00:00 11.4 9 Sur 24 Sudoeste 3.2 -- -- 100
2018-02-15 22:00:00 11.6 6 Sur 19 Sudoeste 4 -- -- 100
2018-02-15 21:00:00 11.7 8 Sur 22 Sur 2.2 -- -- 100
2018-02-15 20:00:00 11.8 6 Sur 17 Sur 3.4 -- -- 100
2018-02-15 19:00:00 12 7 Sudoeste 28 Sudoeste 2.4 -- -- 100
2018-02-15 18:00:00 12.1 9 Sudoeste 34 Sudoeste 1 -- -- 100
2018-02-15 17:00:00 12.4 13 Sudoeste 30 Sudoeste 0.4 -- -- 100
2018-02-15 16:00:00 12.3 10 Sudoeste 31 Sudoeste 0.4 -- -- 100
2018-02-15 15:00:00 12.3 10 Sur 21 Sur 0.4 -- -- 100
2018-02-15 14:00:00 12.3 7 Sudoeste 23 Sur 0.4 -- -- 100
2018-02-15 13:00:00 12.3 10 Sudoeste 23 Sudoeste 0.4 -- -- 100
2018-02-15 12:00:00 12.1 9 Sudoeste 24 Sudoeste 0.4 -- -- 100
2018-02-15 11:00:00 11.9 7 Sur 22 Sur 0.2 -- -- 100
2018-02-15 10:00:00 11.7 8 Sur 23 Sudoeste 0.4 -- -- 100
2018-02-15 09:00:00 11.5 7 Sudoeste 24 Sudoeste 0.2 -- -- 100
2018-02-15 08:00:00 11.5 8 Sudoeste 26 Sudoeste 0.4 -- -- 100
2018-02-15 07:00:00 11.4 8 Sudoeste 23 Sudoeste 0.2 -- -- 100
2018-02-15 06:00:00 11.5 10 Sudoeste 30 Sudoeste 0.4 -- -- 100
2018-02-15 05:00:00 11.5 10 Sudoeste 26 Sudoeste 0.2 -- -- 100
2018-02-15 04:00:00 11.5 12 Sudoeste 31 Sudoeste 0.4 -- -- 100
2018-02-15 03:00:00 11.6 14 Sudoeste 27 Sudoeste 0.2 -- -- 100
2018-02-15 02:00:00 11.6 10 Sudoeste 23 Sudoeste 0.4 -- -- 100
2018-02-15 01:00:00 11.6 9 Sudoeste 31 Sudoeste 0.4 -- -- 100
2018-02-15 00:00:00 11.5 13 Sudoeste 30 Sudoeste 0.2 -- -- 100
2018-02-14 23:00:00 11.4 10 Sudoeste 34 Sudoeste 0.4 -- -- 100
2018-02-14 22:00:00 11.4 18 Sudoeste 37 Sudoeste 0.2 -- -- 100
2018-02-14 21:00:00 11.5 11 Sudoeste 30 Sudoeste 0.4 -- -- 100
2018-02-14 20:00:00 11.7 11 Sudoeste 34 Sudoeste 0.4 -- -- 100
2018-02-14 19:00:00 11.8 12 Sudoeste 29 Sudoeste 0.4 -- -- 100
2018-02-14 18:00:00 12 12 Sudoeste 33 Sudoeste 0.2 -- -- 100
2018-02-14 17:00:00 12 14 Sudoeste 38 Sudoeste 0.4 -- -- 100
2018-02-14 16:00:00 12 14 Sudoeste 35 Oeste 0.4 -- -- 100
2018-02-14 15:00:00 12 16 Sudoeste 35 Sudoeste 0.4 -- -- 100
2018-02-14 14:00:00 11.8 15 Sudoeste 34 Sur 0.4 -- -- 100
2018-02-14 13:00:00 11.6 12 Sudoeste 33 Sudoeste 0.4 -- -- 100
2018-02-14 12:00:00 11.4 17 Sudoeste 43 Sudoeste 0.4 -- -- 100
2018-02-14 11:00:00 11.2 13 Sudoeste 32 Sudoeste 0.2 -- -- 100
2018-02-14 10:00:00 10.9 14 Sudoeste 35 Sudoeste 0.4 -- -- 100
2018-02-14 09:00:00 10.5 10 Sudoeste 36 Sudoeste 0.2 -- -- 100
2018-02-14 08:00:00 10.1 12 Sudoeste 33 Sudoeste 0.2 -- -- 100
2018-02-14 07:00:00 9.7 12 Sudoeste 35 Sur 0.2 -- -- 100
2018-02-14 06:00:00 9.5 13 Sudoeste 32 Sudoeste 0.4 -- -- 100
2018-02-14 05:00:00 9.3 13 Sudoeste 37 Sudoeste 0.2 -- -- 99
2018-02-14 04:00:00 9.2 16 Sudoeste 34 Sudoeste 0.2 -- -- 99
2018-02-14 03:00:00 9.1 13 Sudoeste 36 Sudoeste 0.4 -- -- 98
2018-02-14 02:00:00 9.1 14 Sur 34 Sudoeste 0.2 -- -- 98
2018-02-14 01:00:00 9 11 Sudoeste 34 Sudoeste 0.4 -- -- 99
2018-02-14 00:00:00 9.1 15 Sudoeste 40 Sudoeste 0.2 -- -- 100
2018-02-13 23:00:00 9 14 Sudoeste 30 Sudoeste 0.4 -- -- 100
2018-02-13 22:00:00 9.1 8 Sudoeste 21 Sudoeste 0.2 -- -- 100
2018-02-13 21:00:00 8.9 8 Sudoeste 20 Sudoeste 0.4 -- -- 100
2018-02-13 20:00:00 8.5 4 Sudoeste 25 Oeste 0.2 -- -- 100
2018-02-13 19:00:00 8.9 13 Oeste 27 Sudoeste 0.4 -- -- 100
2018-02-13 18:00:00 9.3 10 Oeste 33 Oeste 0.4 -- -- 100
2018-02-13 17:00:00 9.2 13 Oeste 37 Oeste 0.2 -- -- 100
2018-02-13 16:00:00 9.2 11 Oeste 34 Oeste 0.4 -- -- 100
2018-02-13 15:00:00 9.3 10 Oeste 37 Oeste 0.2 -- -- 100
2018-02-13 14:00:00 9.3 13 Oeste 38 Oeste 0.4 -- -- 100
2018-02-13 13:00:00 9.2 19 Oeste 43 Oeste 0.2 -- -- 100
2018-02-13 12:00:00 8.9 15 Oeste 40 Sudoeste 0 -- -- 100
2018-02-13 11:00:00 8.7 14 Oeste 35 Oeste 0.2 -- -- 100
2018-02-13 10:00:00 8.2 18 Oeste 45 Oeste 0.2 -- -- 100
2018-02-13 09:00:00 6.7 14 Sudoeste 32 Sur 0 -- -- 100
2018-02-13 08:00:00 4.6 6 Sudoeste 22 Sur 0.2 -- -- 100
2018-02-13 07:00:00 4 7 Sur 27 Sur 0 -- -- 99
2018-02-13 06:00:00 3.8 12 Sur 39 Sudoeste 0.2 -- -- 97
2018-02-13 05:00:00 3.4 13 Sur 31 Sudoeste 0.2 -- -- 96
2018-02-13 04:00:00 3.4 11 Sur 27 Sur 0 -- -- 97
2018-02-13 03:00:00 3.1 7 Sudoeste 26 Sudoeste 0.2 -- -- 99
2018-02-13 02:00:00 0.5 0 Calma 6 Norte 0.2 -- -- 100
2018-02-13 01:00:00 -0.4 2 Noroeste 6 Noroeste 0 -- -- 100
2018-02-13 00:00:00 -1 2 Noroeste 10 Noroeste 0.2 -- -- 99
2018-02-12 23:00:00 -1 2 Noroeste 4 Noroeste 0.2 -- -- 98
2018-02-12 22:00:00 -0.1 3 Noroeste 5 Noroeste 0 -- -- 96
2018-02-12 21:00:00 1.4 0 Calma 3 Este 0.2 -- -- 95
2018-02-12 20:00:00 2.6 0 Calma 4 Este 0.2 -- -- 91
2018-02-12 19:00:00 4.4 2 Oeste 9 Noroeste 0.2 -- -- 80
2018-02-12 18:00:00 6 5 Noroeste 12 Noroeste 0.2 -- -- 74
2018-02-12 17:00:00 6.5 3 Noroeste 12 Noroeste 0.2 -- -- 72
2018-02-12 16:00:00 5.3 5 Norte 25 Norte 0.2 -- -- 80
2018-02-12 15:00:00 6.3 4 Nordeste 15 Oeste 0.2 -- -- 77
2018-02-12 14:00:00 5.9 3 Sudoeste 9 Oeste 0.2 -- -- 85
2018-02-12 13:00:00 5.4 3 Este 6 Sur 0.4 -- -- 86
2018-02-12 12:00:00 3.6 0 Calma 7 Norte 0.2 -- -- 100
2018-02-12 11:00:00 2.1 0 Calma 5 Este 0.2 -- -- 100
2018-02-12 10:00:00 0.5 2 Norte 6 Noroeste 0.2 -- -- 100
2018-02-12 09:00:00 -0.4 2 Norte 4 Noroeste 0 -- -- 100
2018-02-12 08:00:00 -1 0 Calma 8 Noroeste 0 -- -- 99
2018-02-12 07:00:00 -1.3 0 Calma 8 Norte 0 -- -- 98
2018-02-12 06:00:00 -0.7 3 Nordeste 8 Nordeste 0.2 -- -- 96
2018-02-12 05:00:00 -0.4 0 Calma 4 Sudeste 0 -- -- 95
2018-02-12 04:00:00 1.2 2 Sur 5 Este 0.2 -- -- 91
2018-02-12 03:00:00 1.9 0 Calma 20 Este 0 -- -- 88
2018-02-12 02:00:00 3 8 Este 19 Este 0.2 -- -- 85
2018-02-12 01:00:00 3.2 7 Este 14 Este 0 -- -- 86
2018-02-12 00:00:00 3.9 4 Nordeste 15 Nordeste 0.2 -- -- 85
2018-02-11 23:00:00 4.5 3 Nordeste 13 Norte 0.2 -- -- 81
2018-02-11 22:00:00 5.3 5 Norte 27 Nordeste 0 -- -- 80
2018-02-11 21:00:00 6.2 6 Nordeste 25 Nordeste 0.2 -- -- 78
2018-02-11 20:00:00 6.4 7 Nordeste 21 Norte 0.2 -- -- 84
2018-02-11 19:00:00 7.1 6 Norte 17 Nordeste 0.2 -- -- 88
2018-02-11 18:00:00 8.1 6 Nordeste 24 Norte 0 -- -- 91
2018-02-11 17:00:00 9.5 5 Nordeste 15 Norte 0.2 -- -- 96
2018-02-11 16:00:00 9.3 3 Norte 19 Norte 0.2 -- -- 100
2018-02-11 15:00:00 9.7 14 Noroeste 32 Noroeste 0.2 -- -- 100
2018-02-11 14:00:00 10.3 8 Oeste 20 Sudoeste 0 -- -- 100
2018-02-11 13:00:00 10.2 10 Sudoeste 28 Sudoeste 0.2 -- -- 100
2018-02-11 12:00:00 10 12 Sudoeste 29 Sudoeste 0 -- -- 100
2018-02-11 11:00:00 9.5 7 Sudoeste 16 Sudoeste 0.2 -- -- 100
2018-02-11 10:00:00 8.8 3 Sudoeste 10 Sudoeste 0 -- -- 100
2018-02-11 09:00:00 8.4 2 Sur 8 Oeste 0 -- -- 100
2018-02-11 08:00:00 8.1 4 Oeste 8 Sudoeste 0.2 -- -- 100
2018-02-11 07:00:00 7.8 4 Sudoeste 6 Sudoeste 0 -- -- 100
2018-02-11 06:00:00 7.7 3 Sur 8 Sudoeste 0 -- -- 100
2018-02-11 05:00:00 7.1 0 Calma 2 Noroeste 0.2 -- -- 100
2018-02-11 04:00:00 6.9 0 Calma 2 Noroeste 0 -- -- 100
2018-02-11 03:00:00 6.9 0 Calma 5 Norte 0 -- -- 100
2018-02-11 02:00:00 6.8 3 Noroeste 5 Norte 0.2 -- -- 100
2018-02-11 01:00:00 6.7 0 Calma 4 Norte 0 -- -- 100
2018-02-11 00:00:00 6.7 0 Calma 3 Noroeste 0 -- -- 100
2018-02-10 23:00:00 6.6 0 Calma 0 Calma 0 -- -- 99
2018-02-10 22:00:00 6.6 0 Calma 4 Noroeste 0.2 -- -- 99
2018-02-10 21:00:00 6.7 0 Calma 0 Calma 0 -- -- 98
2018-02-10 20:00:00 6.8 0 Calma 4 Sudoeste 0.2 -- -- 96
2018-02-10 19:00:00 7.1 3 Sudoeste 8 Sudoeste 0 -- -- 93
2018-02-10 18:00:00 7.5 3 Sudoeste 6 Sudoeste 0.2 -- -- 90
2018-02-10 17:00:00 7.7 4 Noroeste 12 Noroeste 0.2 -- -- 86
2018-02-10 16:00:00 8 7 Noroeste 15 Noroeste 0 -- -- 84
2018-02-10 15:00:00 8.3 5 Noroeste 16 Oeste 0.2 -- -- 81
2018-02-10 14:00:00 8.6 9 Noroeste 19 Noroeste 0 -- -- 81
2018-02-10 13:00:00 8.1 8 Noroeste 13 Noroeste 0.2 -- -- 82
2018-02-10 12:00:00 6.6 2 Noroeste 5 Sudoeste 0 -- -- 94
2018-02-10 11:00:00 4.5 0 Calma 4 Noroeste 0 -- -- 100
2018-02-10 10:00:00 2.5 2 Noroeste 5 Noroeste 0.2 -- -- 100
2018-02-10 09:00:00 1.3 4 Norte 8 Noroeste 0 -- -- 100
2018-02-10 08:00:00 0.7 4 Noroeste 5 Noroeste 0 -- -- 100
2018-02-10 07:00:00 0.6 0 Calma 5 Noroeste 0 -- -- 100
2018-02-10 06:00:00 0.7 2 Noroeste 8 Este 0.2 -- -- 99
2018-02-10 05:00:00 0.2 3 Noroeste 9 Este 0 -- -- 98
2018-02-10 04:00:00 1.5 5 Nordeste 9 Nordeste 0 -- -- 100
2018-02-10 03:00:00 -0.1 2 Norte 9 Nordeste 0 -- -- 98
2018-02-10 02:00:00 0 4 Nordeste 6 Nordeste 0.2 -- -- 100
2018-02-10 01:00:00 0.5 3 Nordeste 7 Nordeste 0 -- -- 96
2018-02-10 00:00:00 0.5 0 Calma 8 Nordeste 0 -- -- 95
2018-02-09 23:00:00 2.1 2 Nordeste 8 Norte 0 -- -- 94
2018-02-09 22:00:00 3.3 5 Norte 12 Norte 0 -- -- 92
2018-02-09 21:00:00 3.5 3 Norte 9 Noroeste 0.2 -- -- 91
2018-02-09 20:00:00 4.9 4 Norte 11 Norte 0 -- -- 85
2018-02-09 19:00:00 6 3 Nordeste 13 Noroeste 0 -- -- 80
2018-02-09 18:00:00 6.8 5 Norte 20 Norte 0 -- -- 81
2018-02-09 17:00:00 7.4 7 Nordeste 26 Norte 0.2 -- -- 81
2018-02-09 16:00:00 7.4 11 Norte 31 Noroeste 0 -- -- 87
2018-02-09 15:00:00 7.7 12 Norte 32 Noroeste 0 -- -- 91
2018-02-09 14:00:00 7.7 6 Nordeste 22 Norte 0.2 -- -- 88
2018-02-09 13:00:00 8.9 8 Norte 23 Norte 0 -- -- 82
2018-02-09 12:00:00 7.8 3 Nordeste 20 Norte 0 -- -- 96
2018-02-09 11:00:00 6.9 9 Noroeste 18 Norte 0.2 -- -- 100
2018-02-09 10:00:00 5.5 2 Sudoeste 6 Sudoeste 0 -- -- 100
2018-02-09 09:00:00 5.1 0 Calma 3 Noroeste 0.2 -- -- 100
2018-02-09 08:00:00 4.9 0 Calma 6 Noroeste 0 -- -- 100
2018-02-09 07:00:00 4.8 3 Norte 4 Norte 0 -- -- 100
2018-02-09 06:00:00 4.7 0 Calma 4 Norte 0.2 -- -- 100
2018-02-09 05:00:00 4.7 2 Noroeste 16 Nordeste 0 -- -- 100
2018-02-09 04:00:00 4.2 3 Norte 6 Norte 0 -- -- 100
2018-02-09 03:00:00 3.9 0 Calma 5 Noroeste 0 -- -- 100
2018-02-09 02:00:00 3.7 0 Calma 5 Noroeste 0.2 -- -- 99
2018-02-09 01:00:00 3.5 3 Norte 5 Sudoeste 0 -- -- 98
2018-02-09 00:00:00 3.7 0 Calma 6 Sudoeste 0 -- -- 96
2018-02-08 23:00:00 3.8 2 Sur 8 Sur 0 -- -- 94
2018-02-08 22:00:00 3.9 0 Calma 4 Sur 0 -- -- 94
2018-02-08 21:00:00 4.5 2 Sur 4 Sur 0 -- -- 91
2018-02-08 20:00:00 5.3 0 Calma 6 Oeste 0 -- -- 84
2018-02-08 19:00:00 6.4 3 Oeste 12 Oeste 0 -- -- 70
2018-02-08 18:00:00 7.3 5 Noroeste 15 Oeste 0 -- -- 64
2018-02-08 17:00:00 8.7 7 Sudoeste 17 Sudoeste 0 -- -- 57
2018-02-08 16:00:00 9.4 7 Sudoeste 17 Oeste 0.2 -- -- 56
2018-02-08 15:00:00 8.4 8 Sudoeste 26 Sudoeste 0 -- -- 58
2018-02-08 14:00:00 9 6 Sudoeste 15 Oeste 0 -- -- 50
2018-02-08 13:00:00 6.9 4 Oeste 9 Oeste 0 -- -- 58
2018-02-08 12:00:00 4.9 2 Oeste 7 Norte 0 -- -- 65
2018-02-08 11:00:00 2.6 2 Noroeste 5 Noroeste 0 -- -- 83
2018-02-08 10:00:00 1 2 Este 8 Noroeste 0 -- -- 85
2018-02-08 09:00:00 0 3 Noroeste 7 Norte 0.2 -- -- 89
2018-02-08 08:00:00 -1.3 3 Noroeste 6 Norte 0 -- -- 94
2018-02-08 07:00:00 -1.4 2 Nordeste 7 Este 0 -- -- 93
2018-02-08 06:00:00 -0.9 3 Norte 8 Nordeste 0 -- -- 93
2018-02-08 05:00:00 -1.1 4 Nordeste 11 Este 0 -- -- 88
2018-02-08 04:00:00 0.1 3 Norte 7 Norte 0 -- -- 85
2018-02-08 03:00:00 -1.3 4 Norte 9 Noroeste 0 -- -- 90
2018-02-08 02:00:00 0 3 Nordeste 10 Este 0 -- -- 87
2018-02-08 01:00:00 0.1 3 Norte 8 Nordeste 0 -- -- 85
2018-02-08 00:00:00 0.7 4 Norte 10 Este 0 -- -- 84
2018-02-07 23:00:00 0.1 3 Este 13 Este 0 -- -- 85
2018-02-07 22:00:00 0.5 3 Sudeste 11 Norte 0 -- -- 83
2018-02-07 21:00:00 2 3 Este 15 Norte 0.2 -- -- 75
2018-02-07 20:00:00 2 0 Calma 21 Norte 0 -- -- 72
2018-02-07 19:00:00 3.3 7 Norte 28 Este 0 -- -- 61
2018-02-07 18:00:00 4.6 13 Este 30 Este 0.2 -- -- 66
2018-02-07 17:00:00 5.3 12 Nordeste 43 Nordeste 0 -- -- 67
2018-02-07 16:00:00 5.2 16 Este 39 Este 0 -- -- 68
2018-02-07 15:00:00 5.8 10 Nordeste 34 Noroeste 0 -- -- 65
2018-02-07 14:00:00 5.5 12 Nordeste 31 Este 0 -- -- 66
2018-02-07 13:00:00 5.8 18 Este 32 Este 0.2 -- -- 67
2018-02-07 12:00:00 4.5 19 Este 43 Nordeste 0 -- -- 74
2018-02-07 11:00:00 2.7 10 Norte 36 Noroeste 0 -- -- 87
2018-02-07 10:00:00 2.3 12 Norte 32 Norte 0 -- -- 88
2018-02-07 09:00:00 1.5 9 Norte 26 Nordeste 0 -- -- 92
2018-02-07 08:00:00 1.9 8 Norte 27 Norte 0 -- -- 89
2018-02-07 07:00:00 1.8 9 Norte 18 Noroeste 0 -- -- 93
2018-02-07 06:00:00 1.9 8 Norte 22 Noroeste 0.2 -- -- 93
2018-02-07 05:00:00 2.2 9 Norte 24 Norte 0 -- -- 90
2018-02-07 04:00:00 2.1 6 Norte 22 Nordeste 0 -- -- 89
2018-02-07 03:00:00 2.4 6 Norte 26 Nordeste 0 -- -- 85
2018-02-07 02:00:00 2.6 4 Norte 19 Nordeste 0 -- -- 85
2018-02-07 01:00:00 2 5 Nordeste 14 Nordeste 0 -- -- 96
2018-02-07 00:00:00 1.7 4 Norte 15 Noroeste 0 -- -- 97
2018-02-06 23:00:00 0.7 3 Nordeste 6 Nordeste 0 -- -- 92
2018-02-06 22:00:00 1.4 3 Nordeste 6 Nordeste 0 -- -- 88
2018-02-06 21:00:00 2.9 2 Este 5 Este 0 -- -- 82
2018-02-06 20:00:00 4.3 0 Calma 9 Este 0 -- -- 78
2018-02-06 19:00:00 5.3 3 Nordeste 13 Nordeste 0.2 -- -- 73
2018-02-06 18:00:00 6.1 5 Norte 22 Este 0 -- -- 68
2018-02-06 17:00:00 6.6 6 Norte 22 Nordeste 0 -- -- 66
2018-02-06 16:00:00 6.6 9 Nordeste 26 Norte 0 -- -- 67
2018-02-06 15:00:00 6.3 9 Norte 26 Norte 0 -- -- 70
2018-02-06 14:00:00 5.9 9 Nordeste 31 Este 0.2 -- -- 66
2018-02-06 13:00:00 6.5 12 Nordeste 32 Norte 0 -- -- 61
2018-02-06 12:00:00 5.3 10 Nordeste 28 Nordeste 0 -- -- 70
2018-02-06 11:00:00 4 7 Nordeste 20 Este 0 -- -- 77
2018-02-06 10:00:00 2.5 4 Este 16 Este 0 -- -- 81
2018-02-06 09:00:00 -0.1 5 Nordeste 9 Norte 0 -- -- 91
2018-02-06 08:00:00 -0.1 2 Nordeste 11 Este 0 -- -- 86
2018-02-06 07:00:00 0.8 4 Norte 15 Nordeste 0.2 -- -- 82
2018-02-06 06:00:00 1.4 4 Norte 13 Norte 0 -- -- 79
2018-02-06 05:00:00 1.2 9 Noroeste 23 Norte 0 -- -- 78
2018-02-06 04:00:00 1.5 4 Norte 27 Este 0.2 -- -- 75
2018-02-06 03:00:00 2.3 11 Nordeste 29 Nordeste 0 -- -- 71
2018-02-06 02:00:00 2.2 6 Norte 28 Nordeste 0 -- -- 71
2018-02-06 01:00:00 1.1 6 Norte 19 Norte 0.2 -- -- 78
2018-02-06 00:00:00 1.4 6 Norte 21 Norte 0 -- -- 76
2018-02-05 23:00:00 2.3 7 Norte 30 Noroeste 0 -- -- 68
2018-02-05 22:00:00 2.4 11 Nordeste 32 Norte 0.2 -- -- 63
2018-02-05 21:00:00 2.7 7 Nordeste 33 Este 0 -- -- 63
2018-02-05 20:00:00 3 6 Nordeste 34 Este 0.2 -- -- 68
2018-02-05 19:00:00 3.2 12 Este 50 Nordeste 0 -- -- 66
2018-02-05 18:00:00 4.1 21 Este 42 Este 0.2 -- -- 63
2018-02-05 17:00:00 4.7 15 Nordeste 40 Este 0 -- -- 64
2018-02-05 16:00:00 5.3 14 Nordeste 50 Nordeste 0 -- -- 63
2018-02-05 15:00:00 4.4 14 Nordeste 49 Este 0.2 -- -- 68
2018-02-05 14:00:00 6.5 16 Nordeste 46 Este 0 -- -- 52
2018-02-05 13:00:00 6.3 19 Nordeste 53 Este 0 -- -- 58
2018-02-05 12:00:00 5.3 21 Nordeste 61 Este 0 -- -- 66
2018-02-05 11:00:00 4.5 26 Nordeste 62 Este 0 -- -- 72
2018-02-05 10:00:00 4.4 27 Este 57 Este 0.2 -- -- 76
2018-02-05 09:00:00 4.1 19 Nordeste 42 Nordeste 0 -- -- 79
2018-02-05 08:00:00 4 16 Nordeste 45 Este 0 -- -- 80
2018-02-05 07:00:00 2.9 8 Norte 24 Norte 0 -- -- 88
2018-02-05 06:00:00 3.5 8 Norte 33 Noroeste 0.2 -- -- 83
2018-02-05 05:00:00 2.9 6 Norte 26 Nordeste 0 -- -- 85
2018-02-05 04:00:00 3.7 6 Norte 36 Este 0.2 -- -- 78
2018-02-05 03:00:00 3.7 13 Nordeste 34 Este 0 -- -- 79
2018-02-05 02:00:00 4.1 14 Nordeste 37 Nordeste 0 -- -- 75
2018-02-05 01:00:00 4 16 Este 43 Este 0.2 -- -- 79
2018-02-05 00:00:00 4.1 11 Nordeste 43 Este 0 -- -- 82
2018-02-04 23:00:00 4.5 21 Este 42 Este 0.2 -- -- 79
2018-02-04 22:00:00 3.9 10 Nordeste 25 Este 0 -- -- 86
2018-02-04 21:00:00 3.3 4 Norte 13 Noroeste 0.2 -- -- 89
2018-02-04 20:00:00 4.1 3 Norte 13 Noroeste 0 -- -- 87
2018-02-04 19:00:00 5.4 7 Norte 20 Norte 0.2 -- -- 83
2018-02-04 18:00:00 6.2 5 Norte 20 Norte 0 -- -- 77
2018-02-04 17:00:00 6.3 10 Norte 24 Norte 0.2 -- -- 78
2018-02-04 16:00:00 6.8 11 Norte 33 Norte 0 -- -- 77
2018-02-04 15:00:00 6.6 10 Nordeste 27 Noroeste 0.2 -- -- 79
2018-02-04 14:00:00 6 8 Norte 26 Noroeste 0 -- -- 83
2018-02-04 13:00:00 6 10 Nordeste 29 Este 0.2 -- -- 77
2018-02-04 12:00:00 4.4 11 Norte 27 Norte 0 -- -- 87
2018-02-04 11:00:00 2.7 4 Sur 14 Este 0 -- -- 98
2018-02-04 10:00:00 1.5 3 Sudoeste 9 Oeste 0 -- -- 100
2018-02-04 09:00:00 0.3 2 Este 6 Noroeste 0 -- -- 99
2018-02-04 08:00:00 -0.1 0 Calma 8 Sur 0.2 -- -- 98
2018-02-04 07:00:00 0.9 0 Calma 13 Noroeste 0 -- -- 96
2018-02-04 06:00:00 2.1 6 Norte 18 Norte 0 -- -- 97
2018-02-04 05:00:00 2 3 Noroeste 10 Norte 0 -- -- 99
2018-02-04 04:00:00 2 4 Noroeste 14 Norte 0 -- -- 99
2018-02-04 03:00:00 2 0 Calma 5 Sur 0 -- -- 97
2018-02-04 02:00:00 2.7 0 Calma 18 Noroeste 0.2 -- -- 94
2018-02-04 01:00:00 3.9 4 Norte 25 Noroeste 0 -- -- 92
2018-02-04 00:00:00 4.8 7 Norte 33 Noroeste 0 -- -- 93
2018-02-03 23:00:00 5.4 4 Noroeste 11 Noroeste 0 -- -- 96
2018-02-03 22:00:00 5.7 6 Noroeste 17 Noroeste 0 -- -- 94
2018-02-03 21:00:00 5.8 11 Noroeste 22 Noroeste 0 -- -- 95
2018-02-03 20:00:00 6 6 Norte 16 Norte 0 -- -- 96
2018-02-03 19:00:00 6.2 3 Norte 15 Noroeste 0.2 -- -- 95
2018-02-03 18:00:00 6.8 3 Norte 15 Noroeste 0 -- -- 94
2018-02-03 17:00:00 7.6 4 Noroeste 9 Noroeste 0 -- -- 96
2018-02-03 16:00:00 6.7 3 Norte 32 Noroeste 0 -- -- 99
2018-02-03 15:00:00 6.8 0 Calma 5 Oeste 0 -- -- 100
2018-02-03 14:00:00 6.2 2 Sudeste 10 Noroeste 0 -- -- 100
2018-02-03 13:00:00 5.5 4 Norte 7 Norte 0 -- -- 100
2018-02-03 12:00:00 4.6 0 Calma 3 Norte 0 -- -- 100
2018-02-03 11:00:00 3.9 0 Calma 4 Noroeste 0 -- -- 100
2018-02-03 10:00:00 3 2 Noroeste 4 Noroeste 0 -- -- 100
2018-02-03 09:00:00 2.5 0 Calma 4 Norte 0.2 -- -- 100
2018-02-03 08:00:00 2.3 0 Calma 5 Norte 0 -- -- 100
2018-02-03 07:00:00 2 0 Calma 6 Norte 0 -- -- 100
2018-02-03 06:00:00 1.4 0 Calma 5 Noroeste 0 -- -- 100
2018-02-03 05:00:00 0.8 3 Noroeste 8 Norte 0 -- -- 100
2018-02-03 04:00:00 0.1 0 Calma 5 Nordeste 0 -- -- 100
2018-02-03 03:00:00 -0.3 2 Norte 7 Noroeste 0.2 -- -- 99
2018-02-03 02:00:00 -0.1 3 Norte 6 Nordeste 0 -- -- 99
2018-02-03 01:00:00 -0.8 0 Calma 8 Noroeste 0 -- -- 98
2018-02-03 00:00:00 -0.7 3 Norte 10 Nordeste 0 -- -- 96
2018-02-02 23:00:00 0.2 5 Nordeste 11 Este 0 -- -- 93
2018-02-02 22:00:00 1 6 Nordeste 12 Este 0 -- -- 92
2018-02-02 21:00:00 1.8 7 Nordeste 11 Nordeste 0 -- -- 91
2018-02-02 20:00:00 3 6 Este 12 Norte 0 -- -- 87
2018-02-02 19:00:00 4.6 5 Norte 15 Noroeste 0 -- -- 81
2018-02-02 18:00:00 6.1 16 Noroeste 29 Noroeste 0 -- -- 78
2018-02-02 17:00:00 7 6 Nordeste 14 Noroeste 0 -- -- 72
2018-02-02 16:00:00 5.3 0 Calma 25 Noroeste 0 -- -- 85
2018-02-02 15:00:00 8 8 Norte 29 Este 0 -- -- 62
2018-02-02 14:00:00 6.9 9 Nordeste 28 Nordeste 0 -- -- 69
2018-02-02 13:00:00 6.6 10 Nordeste 29 Noroeste 0 -- -- 67
2018-02-02 12:00:00 5.6 8 Norte 22 Norte 0.2 -- -- 77
2018-02-02 11:00:00 4.3 4 Noroeste 14 Este 0 -- -- 84
2018-02-02 10:00:00 1.5 0 Calma 4 Norte 0 -- -- 96
2018-02-02 09:00:00 1.2 3 Noroeste 9 Noroeste 0 -- -- 91
2018-02-02 08:00:00 2 4 Norte 12 Norte 0 -- -- 92
2018-02-02 07:00:00 1.7 3 Norte 9 Noroeste 0 -- -- 92
2018-02-02 06:00:00 2 4 Norte 14 Norte 0 -- -- 92
2018-02-02 05:00:00 2.3 3 Nordeste 14 Norte 0 -- -- 91
2018-02-02 04:00:00 2.5 5 Norte 13 Norte 0 -- -- 91
2018-02-02 03:00:00 2.8 5 Norte 17 Norte 0 -- -- 91
2018-02-02 02:00:00 2.9 6 Norte 21 Norte 0 -- -- 90
2018-02-02 01:00:00 3.3 8 Norte 22 Norte 0 -- -- 90
2018-02-02 00:00:00 2.7 6 Norte 14 Norte 0 -- -- 91
2018-02-01 23:00:00 3.3 9 Norte 22 Noroeste 0 -- -- 94
2018-02-01 22:00:00 3.1 4 Nordeste 13 Nordeste 0 -- -- 94
2018-02-01 21:00:00 3.9 8 Norte 23 Noroeste 0.2 -- -- 92
2018-02-01 20:00:00 3.9 10 Norte 24 Noroeste 0 -- -- 93
2018-02-01 19:00:00 4 7 Norte 23 Noroeste 0 -- -- 90
2018-02-01 18:00:00 5.3 12 Norte 23 Norte 0 -- -- 88
2018-02-01 17:00:00 4.9 9 Norte 35 Noroeste 0 -- -- 88
2018-02-01 16:00:00 6.2 10 Norte 36 Noroeste 0 -- -- 87
2018-02-01 15:00:00 6.7 11 Noroeste 32 Noroeste 0 -- -- 87
2018-02-01 14:00:00 7.2 15 Norte 30 Norte 0 -- -- 80
2018-02-01 13:00:00 7.3 10 Noroeste 32 Noroeste 0 -- -- 87
2018-02-01 12:00:00 7.8 9 Norte 27 Noroeste 0 -- -- 80
2018-02-01 11:00:00 6.7 6 Norte 19 Norte 0 -- -- 87
2018-02-01 10:00:00 5.8 5 Norte 15 Norte 0 -- -- 90
2018-02-01 09:00:00 5.5 7 Norte 20 Noroeste 0.2 -- -- 93
2018-02-01 08:00:00 5.4 2 Nordeste 14 Norte 0 -- -- 92
2018-02-01 07:00:00 5.8 2 Norte 15 Nordeste 0 -- -- 88
2018-02-01 06:00:00 6.8 4 Norte 28 Norte 0 -- -- 86
2018-02-01 05:00:00 7.2 7 Norte 18 Norte 0 -- -- 92
2018-02-01 04:00:00 7 10 Norte 31 Noroeste 0 -- -- 95
2018-02-01 03:00:00 7.2 0 Calma 6 Norte 0 -- -- 95
2018-02-01 02:00:00 7.5 2 Norte 10 Norte 0 -- -- 91
2018-02-01 01:00:00 8 3 Norte 15 Noroeste 0 -- -- 93
2018-02-01 00:00:00 8.2 7 Noroeste 13 Noroeste 0 -- -- 96
2018-01-31 23:00:00 8.1 0 Calma 10 Norte 0 -- -- 95
2018-01-31 22:00:00 6.6 2 Nordeste 6 Norte 0 -- -- 95
2018-01-31 21:00:00 6.6 3 Noroeste 8 Noroeste 0 -- -- 91
2018-01-31 20:00:00 7.4 2 Nordeste 15 Este 0.2 -- -- 84
2018-01-31 19:00:00 8.6 4 Norte 19 Norte 0 -- -- 83
2018-01-31 18:00:00 10.2 10 Noroeste 17 Noroeste 0 -- -- 78
2018-01-31 17:00:00 11.8 9 Noroeste 18 Noroeste 0 -- -- 71
2018-01-31 16:00:00 12.7 9 Noroeste 17 Oeste 0 -- -- 67
2018-01-31 15:00:00 14.5 6 Sudoeste 19 Oeste 0 -- -- 54
2018-01-31 14:00:00 14.2 7 Sudoeste 14 Oeste 0 -- -- 56
2018-01-31 13:00:00 12.7 6 Sudoeste 14 Sudoeste 0 -- -- 59
2018-01-31 12:00:00 10.6 4 Oeste 8 Sudoeste 0 -- -- 65
2018-01-31 11:00:00 5.9 3 Noroeste 6 Noroeste 0 -- -- 84
2018-01-31 10:00:00 1.4 3 Noroeste 7 Norte 0 -- -- 95
2018-01-31 09:00:00 -0.2 4 Noroeste 9 Nordeste 0 -- -- 94
2018-01-31 08:00:00 0.6 6 Noroeste 12 Noroeste 0.2 -- -- 94
2018-01-31 07:00:00 0.9 2 Nordeste 11 Este 0 -- -- 92
2018-01-31 06:00:00 1 5 Norte 14 Nordeste 0 -- -- 90
2018-01-31 05:00:00 1.5 2 Norte 14 Nordeste 0 -- -- 90
2018-01-31 04:00:00 1.4 4 Norte 14 Nordeste 0 -- -- 90
2018-01-31 03:00:00 2.3 3 Norte 12 Este 0 -- -- 93
2018-01-31 02:00:00 3.4 4 Norte 9 Norte 0 -- -- 94
2018-01-31 01:00:00 2.7 4 Noroeste 11 Norte 0 -- -- 95
2018-01-31 00:00:00 3.3 4 Norte 13 Nordeste 0 -- -- 91
2018-01-30 23:00:00 3.1 3 Norte 10 Norte 0 -- -- 92
2018-01-30 22:00:00 4.8 5 Norte 10 Nordeste 0 -- -- 89
2018-01-30 21:00:00 7.5 6 Nordeste 11 Nordeste 0 -- -- 79
2018-01-30 20:00:00 8.5 4 Nordeste 9 Este 0 -- -- 78
2018-01-30 19:00:00 11.4 0 Calma 11 Noroeste 0 -- -- 65
2018-01-30 18:00:00 13.4 5 Noroeste 12 Noroeste 0.2 -- -- 59
2018-01-30 17:00:00 15.7 6 Sudoeste 15 Sudoeste 0 -- -- 50
2018-01-30 16:00:00 17.2 8 Sudoeste 15 Sudoeste 0 -- -- 47
2018-01-30 15:00:00 17.6 8 Sudoeste 16 Sudoeste 0 -- -- 42
2018-01-30 14:00:00 17.4 8 Sudoeste 15 Sudoeste 0 -- -- 43
2018-01-30 13:00:00 16.3 5 Sudoeste 16 Este 0 -- -- 40
2018-01-30 12:00:00 14.4 10 Este 25 Este 0 -- -- 45
2018-01-30 11:00:00 12.2 16 Este 27 Este 0 -- -- 50
2018-01-30 10:00:00 6.4 7 Nordeste 19 Este 0 -- -- 73
2018-01-30 09:00:00 6.3 6 Norte 33 Este 0 -- -- 66
2018-01-30 08:00:00 10.3 14 Este 33 Este 0 -- -- 54
2018-01-30 07:00:00 10.9 20 Este 33 Este 0.2 -- -- 51
2018-01-30 06:00:00 10.8 19 Este 31 Nordeste 0 -- -- 52
2018-01-30 05:00:00 7.2 5 Nordeste 17 Nordeste 0 -- -- 66
2018-01-30 04:00:00 7.1 9 Nordeste 13 Nordeste 0 -- -- 66
2018-01-30 03:00:00 7.7 5 Noroeste 15 Este 0 -- -- 73
2018-01-30 02:00:00 8.3 5 Norte 18 Este 0 -- -- 69
2018-01-30 01:00:00 8.3 11 Este 20 Este 0 -- -- 71
2018-01-30 00:00:00 8.9 7 Nordeste 16 Nordeste 0 -- -- 67
2018-01-29 23:00:00 6.9 7 Norte 14 Este 0 -- -- 76
2018-01-29 22:00:00 5.2 6 Norte 12 Nordeste 0 -- -- 85
2018-01-29 21:00:00 6.9 4 Noroeste 12 Este 0 -- -- 77
2018-01-29 20:00:00 9.7 5 Este 13 Sudeste 0.2 -- -- 64
2018-01-29 19:00:00 13.8 7 Este 18 Este 0 -- -- 48
2018-01-29 18:00:00 16 8 Nordeste 18 Este 0 -- -- 39
2018-01-29 17:00:00 17.3 7 Este 18 Este 0 -- -- 42
2018-01-29 16:00:00 18.3 7 Este 16 Este 0 -- -- 43
2018-01-29 15:00:00 18 5 Este 15 Este 0.2 -- -- 43
2018-01-29 14:00:00 16.9 8 Este 20 Este 0 -- -- 44
2018-01-29 13:00:00 15.9 9 Este 21 Este 0 -- -- 47
2018-01-29 12:00:00 14.3 14 Este 24 Este 0 -- -- 51
2018-01-29 11:00:00 11.8 5 Nordeste 17 Este 0 -- -- 63
2018-01-29 10:00:00 9.7 9 Nordeste 18 Este 0 -- -- 66
2018-01-29 09:00:00 7.3 8 Nordeste 19 Nordeste 0 -- -- 73
2018-01-29 08:00:00 9.3 8 Nordeste 18 Este 0 -- -- 65
2018-01-29 07:00:00 6.7 7 Nordeste 21 Este 0 -- -- 74
2018-01-29 06:00:00 8.1 5 Noroeste 20 Este 0.2 -- -- 69
2018-01-29 05:00:00 10.7 9 Este 18 Este 0 -- -- 58
2018-01-29 04:00:00 10.3 7 Noroeste 29 Sudeste 0 -- -- 60
2018-01-29 03:00:00 11.3 8 Este 32 Sudeste 0 -- -- 56
2018-01-29 02:00:00 11.1 10 Este 39 Sudeste 0 -- -- 58
2018-01-29 01:00:00 8.4 3 Este 9 Noroeste 0 -- -- 69
2018-01-29 00:00:00 10.8 3 Norte 48 Este 0.2 -- -- 59
2018-01-28 23:00:00 10.2 15 Sudeste 34 Sudeste 0 -- -- 62
2018-01-28 22:00:00 8.9 3 Este 13 Este 0 -- -- 69
2018-01-28 21:00:00 8.5 4 Este 21 Este 0 -- -- 69
2018-01-28 20:00:00 9.6 10 Este 17 Este 0.2 -- -- 66
2018-01-28 19:00:00 11.6 11 Este 20 Este 0 -- -- 60
2018-01-28 18:00:00 13.5 9 Este 18 Nordeste 0 -- -- 53
2018-01-28 17:00:00 14.1 11 Este 24 Este 0.2 -- -- 51
2018-01-28 16:00:00 14.2 15 Este 31 Este 0 -- -- 50
2018-01-28 15:00:00 13.7 10 Este 30 Nordeste 0 -- -- 53
2018-01-28 14:00:00 13 10 Este 23 Sudoeste 0.2 -- -- 55
2018-01-28 13:00:00 12 8 Sudeste 26 Este 0 -- -- 62
2018-01-28 12:00:00 9.9 10 Este 20 Este 0 -- -- 76
2018-01-28 11:00:00 8.9 4 Norte 15 Noroeste 0 -- -- 85
2018-01-28 10:00:00 7.9 4 Norte 15 Noroeste 0 -- -- 91
2018-01-28 09:00:00 7.4 3 Norte 14 Norte 0 -- -- 92
2018-01-28 08:00:00 7.8 8 Este 27 Este 0 -- -- 91
2018-01-28 07:00:00 7.8 4 Noroeste 14 Nordeste 0 -- -- 92
2018-01-28 06:00:00 8.5 6 Nordeste 21 Este 0.2 -- -- 91
2018-01-28 05:00:00 8.8 9 Este 22 Este 0 -- -- 91
2018-01-28 04:00:00 9 10 Este 26 Este 0 -- -- 91
2018-01-28 03:00:00 9.4 6 Norte 24 Nordeste 0 -- -- 92
2018-01-28 02:00:00 9 3 Oeste 13 Sudoeste 0 -- -- 96
2018-01-28 01:00:00 8.3 3 Noroeste 12 Este 0 -- -- 99
2018-01-28 00:00:00 7.2 0 Calma 5 Noroeste 0.2 -- -- 97
2018-01-27 23:00:00 8.3 0 Calma 6 Noroeste 0 -- -- 98
2018-01-27 22:00:00 8.3 3 Nordeste 12 Norte 0 -- -- 99
2018-01-27 21:00:00 7.9 0 Calma 6 Norte 0 -- -- 97
2018-01-27 20:00:00 8.1 3 Norte 10 Nordeste 0 -- -- 95
2018-01-27 19:00:00 8.5 5 Norte 14 Norte 0.2 -- -- 92
2018-01-27 18:00:00 9 9 Norte 15 Noroeste 0 -- -- 89
2018-01-27 17:00:00 9.5 5 Norte 12 Norte 0 -- -- 89
2018-01-27 16:00:00 8.9 5 Este 12 Este 0 -- -- 90
2018-01-27 15:00:00 9.5 4 Nordeste 12 Norte 0.2 -- -- 84
2018-01-27 14:00:00 9.1 6 Este 13 Este 0 -- -- 87
2018-01-27 13:00:00 8.4 4 Norte 18 Noroeste 0 -- -- 88
2018-01-27 12:00:00 7.8 8 Norte 25 Noroeste 0 -- -- 91
2018-01-27 11:00:00 5.9 3 Noroeste 9 Norte 0 -- -- 100
2018-01-27 10:00:00 3.2 3 Norte 10 Norte 0 -- -- 100
2018-01-27 09:00:00 2.3 3 Norte 11 Norte 0 -- -- 99
2018-01-27 08:00:00 4 5 Norte 13 Nordeste 0 -- -- 100
2018-01-27 07:00:00 4.2 5 Norte 12 Norte 0 -- -- 99
2018-01-27 06:00:00 3.2 4 Norte 9 Noroeste 0 -- -- 95
2018-01-27 05:00:00 4.9 4 Norte 9 Norte 0.2 -- -- 95
2018-01-27 04:00:00 5.2 5 Norte 14 Nordeste 0 -- -- 96
2018-01-27 03:00:00 5.1 5 Norte 13 Nordeste 0 -- -- 98
2018-01-27 02:00:00 4.2 3 Norte 9 Norte 0 -- -- 100
2018-01-27 01:00:00 3.5 3 Norte 6 Nordeste 0 -- -- 100
2018-01-27 00:00:00 3.7 3 Norte 6 Noroeste 0.2 -- -- 100
2018-01-26 23:00:00 3.7 3 Nordeste 8 Nordeste 0 -- -- 100
2018-01-26 22:00:00 3.2 2 Nordeste 6 Norte 0 -- -- 98
2018-01-26 21:00:00 4.1 3 Norte 5 Norte 0 -- -- 97
2018-01-26 20:00:00 5 3 Nordeste 7 Nordeste 0.2 -- -- 95
2018-01-26 19:00:00 5.7 0 Calma 10 Noroeste 0 -- -- 92
2018-01-26 18:00:00 7.3 8 Norte 26 Norte 0 -- -- 87
2018-01-26 17:00:00 7.5 3 Nordeste 16 Noroeste 0 -- -- 88
2018-01-26 16:00:00 6.6 3 Noroeste 30 Noroeste 0.2 -- -- 92
2018-01-26 15:00:00 8.1 6 Nordeste 24 Noroeste 0 -- -- 83
2018-01-26 14:00:00 7.3 9 Norte 35 Noroeste 0 -- -- 84
2018-01-26 13:00:00 7.1 11 Noroeste 23 Norte 0 -- -- 88
2018-01-26 12:00:00 6.7 7 Norte 19 Norte 0 -- -- 92
2018-01-26 11:00:00 4.1 2 Norte 10 Oeste 0 -- -- 100
2018-01-26 10:00:00 2.3 2 Noroeste 5 Noroeste 0 -- -- 100
2018-01-26 09:00:00 1.7 0 Calma 4 Noroeste 0 -- -- 100
2018-01-26 08:00:00 2.4 0 Calma -- -- 0.2 -- -- 99
2018-01-26 07:00:00 2.8 0 Calma 6 Nordeste 0 -- -- 98
2018-01-26 06:00:00 3.5 3 Nordeste 10 Este 0 -- -- 100
2018-01-26 05:00:00 4 0 Calma 9 Nordeste 0 -- -- 99
2018-01-26 04:00:00 3.9 0 Calma 11 Norte 0.2 -- -- 100
2018-01-26 03:00:00 3.6 2 Norte 5 Este 0 -- -- 100
2018-01-26 02:00:00 4 2 Sudeste 12 Norte 0 -- -- 100
2018-01-26 01:00:00 3 2 Norte 5 Norte 0 -- -- 100
2018-01-26 00:00:00 2.6 0 Calma 6 Noroeste 0.2 -- -- 100
2018-01-25 23:00:00 2.6 0 Calma 5 Norte 0 -- -- 100
2018-01-25 22:00:00 2.6 3 Este 6 Este 0 -- -- 100
2018-01-25 21:00:00 2.6 2 Norte 5 Noroeste 0.2 -- -- 99
2018-01-25 20:00:00 3.3 0 Calma 4 Noroeste 0 -- -- 97
2018-01-25 19:00:00 4.7 0 Calma 6 Sur 0.2 -- -- 94
2018-01-25 18:00:00 5.6 0 Calma 26 Noroeste 0 -- -- 89
2018-01-25 17:00:00 8.8 12 Noroeste 33 Oeste 0.2 -- -- 78
2018-01-25 16:00:00 8.1 9 Noroeste 21 Noroeste 0 -- -- 85
2018-01-25 15:00:00 8 9 Noroeste 18 Noroeste 0.2 -- -- 87
2018-01-25 14:00:00 7.2 10 Noroeste 19 Norte 0 -- -- 91
2018-01-25 13:00:00 6.5 5 Norte 22 Noroeste 0.2 -- -- 94
2018-01-25 12:00:00 7.1 5 Norte 17 Noroeste 0 -- -- 93
2018-01-25 11:00:00 7.5 10 Noroeste 26 Norte 0.2 -- -- 93
2018-01-25 10:00:00 7.4 12 Noroeste 19 Noroeste 0 -- -- 97
2018-01-25 09:00:00 7.4 8 Noroeste 19 Oeste 0 -- -- 100
2018-01-25 08:00:00 7.2 0 Calma 10 Noroeste 0.2 -- -- 100
2018-01-25 07:00:00 7.2 5 Sudoeste 13 Sudoeste 0 -- -- 100
2018-01-25 06:00:00 7.3 4 Sudoeste 12 Sudoeste 0 -- -- 100
2018-01-25 05:00:00 7.7 5 Sudoeste 17 Noroeste 0.2 -- -- 100
2018-01-25 04:00:00 8.1 12 Noroeste 20 Noroeste 0 -- -- 100
2018-01-25 03:00:00 8.4 3 Sudoeste 9 Sudoeste 0 -- -- 100
2018-01-25 02:00:00 8.6 4 Sudoeste 14 Oeste 0 -- -- 100
2018-01-25 01:00:00 8.8 3 Sudoeste 25 Oeste 0.2 -- -- 100
2018-01-25 00:00:00 9.6 11 Sudoeste 27 Sudoeste 0 -- -- 100
2018-01-24 23:00:00 9.5 12 Sur 32 Sudeste 0 -- -- 100
2018-01-24 22:00:00 9.4 8 Sur 27 Sudoeste 0 -- -- 100
2018-01-24 21:00:00 9.1 8 Sur 22 Sudoeste 0 -- -- 99
2018-01-24 20:00:00 9.2 8 Sur 20 Sur 0 -- -- 98
2018-01-24 19:00:00 9.2 12 Sur 28 Sur 0.2 -- -- 96
2018-01-24 18:00:00 9.5 13 Sur 33 Sur 0 -- -- 92
2018-01-24 17:00:00 9.6 10 Sur 25 Sur 0 -- -- 92
2018-01-24 16:00:00 9.7 13 Sudoeste 30 Sudoeste 0 -- -- 90
2018-01-24 15:00:00 9.8 12 Sudoeste 26 Sur 0 -- -- 90
2018-01-24 14:00:00 9.5 8 Sudoeste 27 Sudoeste 0 -- -- 91
2018-01-24 13:00:00 8.7 4 Sudoeste 19 Sudoeste 0 -- -- 92
2018-01-24 12:00:00 9.2 7 Sudoeste 17 Sudoeste 0 -- -- 88
2018-01-24 11:00:00 9.1 9 Sudoeste 18 Sudoeste 0 -- -- 87
2018-01-24 10:00:00 8 3 Sudoeste 11 Sudoeste 0 -- -- 94
2018-01-24 09:00:00 7 3 Sudoeste 8 Noroeste 0 -- -- 98
2018-01-24 08:00:00 6.7 0 Calma 4 Noroeste 0 -- -- 99
2018-01-24 07:00:00 6.7 0 Calma 3 Sudeste 0 -- -- 99
2018-01-24 06:00:00 6.7 0 Calma 5 Este 0.2 -- -- 100
2018-01-24 05:00:00 6.8 0 Calma 5 Oeste 0 -- -- 100
2018-01-24 04:00:00 6.8 2 Sudoeste 7 Noroeste 0 -- -- 100
2018-01-24 03:00:00 6.3 3 Noroeste 7 Noroeste 0 -- -- 100
2018-01-24 02:00:00 5.5 3 Noroeste 5 Noroeste 0 -- -- 99
2018-01-24 01:00:00 6.8 3 Noroeste 5 Noroeste 0 -- -- 98
2018-01-24 00:00:00 7.3 0 Calma 5 Noroeste 0 -- -- 98
2018-01-23 23:00:00 7.2 0 Calma 6 Noroeste 0.2 -- -- 98
2018-01-23 22:00:00 7.9 2 Norte 5 Norte 0 -- -- 95
2018-01-23 21:00:00 9 4 Norte 5 Norte 0 -- -- 92
2018-01-23 20:00:00 9.8 2 Nordeste 7 Este 0 -- -- 88
2018-01-23 19:00:00 10.4 3 Nordeste 7 Sudeste 0 -- -- 87
2018-01-23 18:00:00 11.5 0 Calma 6 Oeste 0 -- -- 84
2018-01-23 17:00:00 12.1 3 Oeste 8 Oeste 0.2 -- -- 78
2018-01-23 16:00:00 12.4 3 Sur 5 Oeste 0 -- -- 76
2018-01-23 15:00:00 12.1 3 Sudoeste 9 Sudoeste 0 -- -- 77
2018-01-23 14:00:00 12 2 Sur 7 Sudeste 0 -- -- 79
2018-01-23 13:00:00 11.2 4 Sudoeste 7 Sudoeste 0 -- -- 100
2018-01-23 12:00:00 10.4 3 Sudeste 4 Sudeste 0.2 -- -- 100
2018-01-23 11:00:00 9.8 0 Calma -- -- 0 -- -- 100
2018-01-23 10:00:00 9.5 0 Calma 2 Norte 0 -- -- 100
2018-01-23 09:00:00 9.4 0 Calma 2 Este 0 -- -- 100
2018-01-23 08:00:00 9.4 0 Calma 4 Sudeste 0 -- -- 100
2018-01-23 07:00:00 9.6 2 Oeste 7 Noroeste 0 -- -- 100
2018-01-23 06:00:00 9.7 0 Calma 4 Sudeste 0.2 -- -- 100
2018-01-23 05:00:00 9.8 0 Calma 3 Sudoeste 0 -- -- 100
2018-01-23 04:00:00 9.9 0 Calma 2 Sur 0 -- -- 100
2018-01-23 03:00:00 9.9 0 Calma 3 Noroeste 0.2 -- -- 100
2018-01-23 02:00:00 10 0 Calma 3 Sur 0 -- -- 100
2018-01-23 01:00:00 10 0 Calma -- -- 0.2 -- -- 100
2018-01-23 00:00:00 10.1 0 Calma -- -- 0.2 -- -- 100
2018-01-22 23:00:00 10.1 0 Calma -- -- 0 -- -- 100
2018-01-22 22:00:00 10.1 0 Calma -- -- 0.2 -- -- 100
2018-01-22 21:00:00 10.2 0 Calma 4 Sudoeste 0.2 -- -- 100
2018-01-22 20:00:00 10.2 0 Calma 5 Sudoeste 0.2 -- -- 100
2018-01-22 19:00:00 10.3 3 Oeste 10 Oeste 0.2 -- -- 99
2018-01-22 18:00:00 10.8 3 Sudoeste 6 Sudoeste 0.2 -- -- 99
2018-01-22 17:00:00 10.9 4 Sudoeste 9 Oeste 0.2 -- -- 98
2018-01-22 16:00:00 11.4 3 Oeste 9 Oeste 0.2 -- -- 95
2018-01-22 15:00:00 12.1 3 Sudoeste 10 Oeste 0.2 -- -- 92
2018-01-22 14:00:00 11.5 4 Oeste 10 Sudoeste 0.2 -- -- 97
2018-01-22 13:00:00 11.6 5 Sudoeste 9 Oeste 0.2 -- -- 100
2018-01-22 12:00:00 10.8 0 Calma 7 Sudoeste 0.2 -- -- 100
2018-01-22 11:00:00 10.2 0 Calma 8 Oeste 0.2 -- -- 100
2018-01-22 10:00:00 9.8 2 Sudoeste 7 Oeste 0.2 -- -- 100
2018-01-22 09:00:00 9.7 3 Sudoeste 7 Oeste 0.2 -- -- 100
2018-01-22 08:00:00 9.6 2 Sur 10 Sudoeste 0.2 -- -- 100
2018-01-22 07:00:00 9.7 3 Oeste 8 Sudoeste 0.2 -- -- 100
2018-01-22 06:00:00 9.7 3 Sudoeste 9 Sudoeste 0.2 -- -- 100
2018-01-22 05:00:00 9.7 0 Calma 6 Sudoeste 0.2 -- -- 100
2018-01-22 04:00:00 9.7 3 Sur 11 Oeste 0.2 -- -- 100
2018-01-22 03:00:00 10 5 Sudoeste 17 Sudoeste 0.2 -- -- 100
2018-01-22 02:00:00 10.1 6 Sudoeste 17 Sudoeste 0.2 -- -- 100
2018-01-22 01:00:00 10.2 5 Sudoeste 13 Sudoeste 0.2 -- -- 100
2018-01-22 00:00:00 10.2 3 Sudoeste 6 Sudoeste 0.2 -- -- 100